This is the latest recevied weather packets stored in our database for station/object IK1AMC-3. If no packets are shown the sender has not sent any weather packets the latest 10 day(s).
| Time | Temp. | Humidity | Pressure | Rain* | Wind** | Luminosity | Snow |
|---|---|---|---|---|---|---|---|
| 1777979766 | 18.33° C | 60% | 1011.9 hPa | - | - | - | - |
| 1777978565 | 17.78° C | 60% | 1011.9 hPa | - | - | - | - |
| 1777977363 | 17.78° C | 61% | 1011.8 hPa | - | - | - | - |
| 1777976162 | 17.22° C | 61% | 1012 hPa | - | - | - | - |
| 1777974961 | 17.22° C | 61% | 1012 hPa | - | - | - | - |
| 1777973760 | 18.33° C | 58% | 1011.9 hPa | - | - | - | - |
| 1777972558 | 17.22° C | 61% | 1012 hPa | - | - | - | - |
| 1777971357 | 16.67° C | 64% | 1012 hPa | - | - | - | - |
| 1777970428 | 15.56° C | 70% | 1011.9 hPa | - | - | - | - |
| 1777969226 | 15.56° C | 67% | 1012 hPa | - | - | - | - |
| 1777968025 | 15.56° C | 68% | 1011.7 hPa | - | - | - | - |
| 1777966824 | 15.56° C | 67% | 1011.6 hPa | - | - | - | - |
| 1777965623 | 15.56° C | 68% | 1011.7 hPa | - | - | - | - |
| 1777964421 | 15° C | 70% | 1011.4 hPa | - | - | - | - |
| 1777963220 | 15° C | 71% | 1011.3 hPa | - | - | - | - |
| 1777962019 | 14.44° C | 72% | 1011.2 hPa | - | - | - | - |
| 1777960818 | 14.44° C | 73% | 1011 hPa | - | - | - | - |
| 1777959616 | 13.89° C | 74% | 1010.8 hPa | - | - | - | - |
| 1777958415 | 13.89° C | 76% | 1010.7 hPa | - | - | - | - |
| 1777957214 | 13.89° C | 79% | 1010.7 hPa | - | - | - | - |
| 1777956012 | 13.89° C | 80% | 1010.7 hPa | - | - | - | - |
| 1777954811 | 13.89° C | 83% | 1010.6 hPa | - | - | - | - |
| 1777953610 | 13.89° C | 82% | 1011.6 hPa | - | - | - | - |
| 1777952408 | 13.89° C | 82% | 1012 hPa | - | - | - | - |
| 1777951207 | 13.89° C | 83% | 1012.2 hPa | - | - | - | - |
* Rain since midnight (hover to see other rain measurements)
** Current wind speed in m/s (hover to see current wind gust speed)